Devonia, Tennessee
Current Conditions -  °F | °C
As of 4:53 PM on Thursday 23 Oct 2014 (Local Time) from KOQT Reporting Station
Clear Clear  
Wind Chill: 64°   Ceiling: Unl
Heat Index: 64°   Visibility: 10mi
Dew Point: 41°   Wind: 5mph
Humidity: 43%   Direction: NA
Pressure: 30.11"   Gusts: NA
Location:  36.1665°N, 84.3051°W
Report Text: KOQT 232053Z AUTO VRB04KT 10SM CLR 18/05 A3011 RMK AO2 SLP193 T01780050 56018
Loading
Personal Weather Stations






























Interactive Weather Map
Tropical Storm Tracking
New forecast layout! Learn more

10-Day Weather Forecast

Advertisements
Track Severe Weather on mobile